sensor_id;sensor_type;location;lat;lon;timestamp;P1;durP1;ratioP1;P2;durP2;ratioP2
40244;SDS011;25963;42.694;23.600;2022-09-17T00:00:38;8.85;;;3.75;;
40244;SDS011;25963;42.694;23.600;2022-09-17T00:03:04;7.78;;;3.28;;
40244;SDS011;25963;42.694;23.600;2022-09-17T00:05:30;8.15;;;3.30;;
40244;SDS011;25963;42.694;23.600;2022-09-17T00:07:55;7.53;;;3.42;;
40244;SDS011;25963;42.694;23.600;2022-09-17T00:10:21;6.93;;;3.33;;
40244;SDS011;25963;42.694;23.600;2022-09-17T00:12:47;7.57;;;3.40;;
40244;SDS011;25963;42.694;23.600;2022-09-17T00:15:13;4.90;;;3.15;;
40244;SDS011;25963;42.694;23.600;2022-09-17T00:17:39;7.20;;;3.45;;
40244;SDS011;25963;42.694;23.600;2022-09-17T00:20:06;7.53;;;3.72;;
40244;SDS011;25963;42.694;23.600;2022-09-17T00:22:34;6.53;;;3.42;;
40244;SDS011;25963;42.694;23.600;2022-09-17T00:25:00;6.13;;;3.35;;
40244;SDS011;25963;42.694;23.600;2022-09-17T00:27:25;5.05;;;3.20;;
40244;SDS011;25963;42.694;23.600;2022-09-17T00:29:51;5.88;;;3.50;;
40244;SDS011;25963;42.694;23.600;2022-09-17T00:32:16;6.40;;;3.10;;
40244;SDS011;25963;42.694;23.600;2022-09-17T00:34:42;6.18;;;4.10;;
40244;SDS011;25963;42.694;23.600;2022-09-17T00:37:07;6.03;;;3.28;;
40244;SDS011;25963;42.694;23.600;2022-09-17T00:39:33;5.05;;;3.58;;
40244;SDS011;25963;42.694;23.600;2022-09-17T00:41:58;9.00;;;3.15;;
40244;SDS011;25963;42.694;23.600;2022-09-17T00:47:10;8.07;;;3.50;;
40244;SDS011;25963;42.694;23.600;2022-09-17T00:49:50;6.22;;;3.45;;
40244;SDS011;25963;42.694;23.600;2022-09-17T00:52:23;6.03;;;3.78;;
40244;SDS011;25963;42.694;23.600;2022-09-17T00:54:53;4.53;;;2.92;;
40244;SDS011;25963;42.694;23.600;2022-09-17T00:57:24;7.78;;;3.45;;
40244;SDS011;25963;42.694;23.600;2022-09-17T00:59:50;5.20;;;3.17;;
40244;SDS011;25963;42.694;23.600;2022-09-17T01:02:16;7.80;;;3.00;;
40244;SDS011;25963;42.694;23.600;2022-09-17T01:04:42;9.63;;;2.95;;
40244;SDS011;25963;42.694;23.600;2022-09-17T01:07:16;6.47;;;3.17;;
40244;SDS011;25963;42.694;23.600;2022-09-17T01:10:04;5.53;;;3.10;;
40244;SDS011;25963;42.694;23.600;2022-09-17T01:13:05;8.30;;;2.85;;
40244;SDS011;25963;42.694;23.600;2022-09-17T01:26:41;4.35;;;2.88;;
40244;SDS011;25963;42.694;23.600;2022-09-17T01:32:21;6.43;;;2.63;;
40244;SDS011;25963;42.694;23.600;2022-09-17T01:37:45;8.60;;;3.20;;
40244;SDS011;25963;42.694;23.600;2022-09-17T01:40:29;8.90;;;2.90;;
40244;SDS011;25963;42.694;23.600;2022-09-17T01:43:03;7.75;;;3.08;;
40244;SDS011;25963;42.694;23.600;2022-09-17T01:45:37;8.60;;;3.28;;
40244;SDS011;25963;42.694;23.600;2022-09-17T01:50:42;9.30;;;3.50;;
40244;SDS011;25963;42.694;23.600;2022-09-17T01:53:14;5.53;;;2.92;;
40244;SDS011;25963;42.694;23.600;2022-09-17T01:55:43;8.63;;;3.53;;
40244;SDS011;25963;42.694;23.600;2022-09-17T01:58:15;6.70;;;3.83;;
40244;SDS011;25963;42.694;23.600;2022-09-17T02:00:47;8.73;;;3.63;;
40244;SDS011;25963;42.694;23.600;2022-09-17T02:03:16;9.80;;;3.78;;
40244;SDS011;25963;42.694;23.600;2022-09-17T02:08:23;6.75;;;3.30;;
40244;SDS011;25963;42.694;23.600;2022-09-17T02:10:58;13.82;;;3.80;;
40244;SDS011;25963;42.694;23.600;2022-09-17T02:13:48;5.07;;;3.35;;
40244;SDS011;25963;42.694;23.600;2022-09-17T02:16:12;6.55;;;3.67;;
40244;SDS011;25963;42.694;23.600;2022-09-17T02:19:06;6.63;;;3.40;;
40244;SDS011;25963;42.694;23.600;2022-09-17T02:21:45;4.53;;;3.30;;
40244;SDS011;25963;42.694;23.600;2022-09-17T02:24:24;6.68;;;4.00;;
40244;SDS011;25963;42.694;23.600;2022-09-17T02:27:05;8.07;;;4.15;;
40244;SDS011;25963;42.694;23.600;2022-09-17T02:29:41;11.23;;;4.88;;
40244;SDS011;25963;42.694;23.600;2022-09-17T02:32:09;6.75;;;4.03;;
40244;SDS011;25963;42.694;23.600;2022-09-17T02:34:35;7.03;;;3.78;;
40244;SDS011;25963;42.694;23.600;2022-09-17T02:37:00;10.05;;;3.88;;
40244;SDS011;25963;42.694;23.600;2022-09-17T02:39:27;10.10;;;4.18;;
40244;SDS011;25963;42.694;23.600;2022-09-17T02:41:56;9.63;;;5.10;;
40244;SDS011;25963;42.694;23.600;2022-09-17T02:45:14;6.47;;;3.85;;
40244;SDS011;25963;42.694;23.600;2022-09-17T02:56:10;4.72;;;3.00;;
40244;SDS011;25963;42.694;23.600;2022-09-17T02:59:11;9.30;;;3.28;;
40244;SDS011;25963;42.694;23.600;2022-09-17T03:01:48;6.43;;;2.53;;
40244;SDS011;25963;42.694;23.600;2022-09-17T03:04:20;8.55;;;3.03;;
40244;SDS011;25963;42.694;23.600;2022-09-17T03:06:48;5.93;;;2.90;;
40244;SDS011;25963;42.694;23.600;2022-09-17T03:09:16;11.38;;;3.63;;
40244;SDS011;25963;42.694;23.600;2022-09-17T03:11:41;7.07;;;2.90;;
40244;SDS011;25963;42.694;23.600;2022-09-17T03:14:07;8.85;;;2.83;;
40244;SDS011;25963;42.694;23.600;2022-09-17T03:16:32;5.50;;;2.20;;
40244;SDS011;25963;42.694;23.600;2022-09-17T03:18:57;11.75;;;3.03;;
40244;SDS011;25963;42.694;23.600;2022-09-17T03:21:23;7.30;;;2.80;;
40244;SDS011;25963;42.694;23.600;2022-09-17T03:23:48;7.07;;;2.85;;
40244;SDS011;25963;42.694;23.600;2022-09-17T03:26:14;8.25;;;2.85;;
40244;SDS011;25963;42.694;23.600;2022-09-17T03:28:39;5.32;;;3.28;;
40244;SDS011;25963;42.694;23.600;2022-09-17T03:31:05;9.43;;;3.28;;
40244;SDS011;25963;42.694;23.600;2022-09-17T03:33:31;12.90;;;4.45;;
40244;SDS011;25963;42.694;23.600;2022-09-17T03:35:57;5.82;;;3.17;;
40244;SDS011;25963;42.694;23.600;2022-09-17T03:38:22;10.38;;;4.07;;
40244;SDS011;25963;42.694;23.600;2022-09-17T03:40:58;8.57;;;4.47;;
40244;SDS011;25963;42.694;23.600;2022-09-17T03:43:24;11.65;;;4.80;;
40244;SDS011;25963;42.694;23.600;2022-09-17T03:45:49;11.43;;;4.82;;
40244;SDS011;25963;42.694;23.600;2022-09-17T03:48:15;8.98;;;4.80;;
40244;SDS011;25963;42.694;23.600;2022-09-17T03:50:40;9.35;;;5.05;;
40244;SDS011;25963;42.694;23.600;2022-09-17T03:53:07;10.32;;;4.70;;
40244;SDS011;25963;42.694;23.600;2022-09-17T03:55:32;7.50;;;5.07;;
40244;SDS011;25963;42.694;23.600;2022-09-17T03:57:58;9.65;;;5.03;;
40244;SDS011;25963;42.694;23.600;2022-09-17T04:00:23;11.35;;;5.07;;
40244;SDS011;25963;42.694;23.600;2022-09-17T04:02:49;11.27;;;5.43;;
40244;SDS011;25963;42.694;23.600;2022-09-17T04:05:15;13.25;;;5.38;;
40244;SDS011;25963;42.694;23.600;2022-09-17T04:07:40;6.30;;;4.43;;
40244;SDS011;25963;42.694;23.600;2022-09-17T04:10:06;8.55;;;5.88;;
40244;SDS011;25963;42.694;23.600;2022-09-17T04:12:33;10.45;;;5.43;;
40244;SDS011;25963;42.694;23.600;2022-09-17T04:14:58;9.90;;;4.88;;
40244;SDS011;25963;42.694;23.600;2022-09-17T04:17:24;7.35;;;4.38;;
40244;SDS011;25963;42.694;23.600;2022-09-17T04:19:49;10.48;;;5.45;;
40244;SDS011;25963;42.694;23.600;2022-09-17T04:22:14;9.60;;;4.80;;
40244;SDS011;25963;42.694;23.600;2022-09-17T04:24:40;8.48;;;4.95;;
40244;SDS011;25963;42.694;23.600;2022-09-17T04:27:05;12.48;;;6.10;;
40244;SDS011;25963;42.694;23.600;2022-09-17T04:29:31;8.23;;;4.72;;
40244;SDS011;25963;42.694;23.600;2022-09-17T04:31:56;8.75;;;4.60;;
40244;SDS011;25963;42.694;23.600;2022-09-17T04:34:21;13.73;;;5.70;;
40244;SDS011;25963;42.694;23.600;2022-09-17T04:36:47;11.75;;;4.90;;
40244;SDS011;25963;42.694;23.600;2022-09-17T04:39:12;11.00;;;4.38;;
40244;SDS011;25963;42.694;23.600;2022-09-17T04:41:38;6.07;;;4.82;;
40244;SDS011;25963;42.694;23.600;2022-09-17T04:44:03;11.75;;;4.30;;
40244;SDS011;25963;42.694;23.600;2022-09-17T04:46:28;5.20;;;3.72;;
40244;SDS011;25963;42.694;23.600;2022-09-17T04:48:54;9.35;;;4.03;;
40244;SDS011;25963;42.694;23.600;2022-09-17T04:51:19;10.85;;;4.72;;
40244;SDS011;25963;42.694;23.600;2022-09-17T04:53:45;8.70;;;4.93;;
40244;SDS011;25963;42.694;23.600;2022-09-17T04:56:10;5.70;;;4.47;;
40244;SDS011;25963;42.694;23.600;2022-09-17T04:58:35;9.48;;;4.85;;
40244;SDS011;25963;42.694;23.600;2022-09-17T05:01:01;11.93;;;5.38;;
40244;SDS011;25963;42.694;23.600;2022-09-17T05:03:27;9.10;;;4.97;;
40244;SDS011;25963;42.694;23.600;2022-09-17T05:05:52;10.32;;;5.63;;
40244;SDS011;25963;42.694;23.600;2022-09-17T05:08:17;11.82;;;5.22;;
40244;SDS011;25963;42.694;23.600;2022-09-17T05:10:43;11.35;;;5.38;;
40244;SDS011;25963;42.694;23.600;2022-09-17T05:13:09;13.20;;;5.88;;
40244;SDS011;25963;42.694;23.600;2022-09-17T05:15:34;9.40;;;4.47;;
40244;SDS011;25963;42.694;23.600;2022-09-17T05:18:00;8.48;;;4.30;;
40244;SDS011;25963;42.694;23.600;2022-09-17T05:20:25;11.52;;;5.25;;
40244;SDS011;25963;42.694;23.600;2022-09-17T05:22:51;12.25;;;6.60;;
40244;SDS011;25963;42.694;23.600;2022-09-17T05:25:17;11.27;;;6.78;;
40244;SDS011;25963;42.694;23.600;2022-09-17T05:27:48;13.75;;;6.20;;
40244;SDS011;25963;42.694;23.600;2022-09-17T05:30:13;12.80;;;7.63;;
40244;SDS011;25963;42.694;23.600;2022-09-17T05:32:39;13.52;;;7.38;;
40244;SDS011;25963;42.694;23.600;2022-09-17T05:35:05;12.18;;;6.80;;
40244;SDS011;25963;42.694;23.600;2022-09-17T05:37:31;10.32;;;6.80;;
40244;SDS011;25963;42.694;23.600;2022-09-17T05:39:57;14.18;;;6.57;;
40244;SDS011;25963;42.694;23.600;2022-09-17T05:42:22;12.88;;;6.30;;
40244;SDS011;25963;42.694;23.600;2022-09-17T05:44:48;8.90;;;6.88;;
40244;SDS011;25963;42.694;23.600;2022-09-17T05:47:13;13.00;;;6.80;;
40244;SDS011;25963;42.694;23.600;2022-09-17T05:49:39;17.52;;;7.70;;
40244;SDS011;25963;42.694;23.600;2022-09-17T05:52:04;16.23;;;7.20;;
40244;SDS011;25963;42.694;23.600;2022-09-17T05:54:30;15.27;;;6.93;;
40244;SDS011;25963;42.694;23.600;2022-09-17T05:56:55;11.63;;;6.72;;
40244;SDS011;25963;42.694;23.600;2022-09-17T05:59:21;12.27;;;6.97;;
40244;SDS011;25963;42.694;23.600;2022-09-17T06:01:46;9.60;;;6.50;;
40244;SDS011;25963;42.694;23.600;2022-09-17T06:04:12;7.90;;;4.03;;
40244;SDS011;25963;42.694;23.600;2022-09-17T06:06:38;10.13;;;4.40;;
40244;SDS011;25963;42.694;23.600;2022-09-17T06:09:06;7.68;;;3.60;;
40244;SDS011;25963;42.694;23.600;2022-09-17T06:11:33;8.60;;;3.10;;
40244;SDS011;25963;42.694;23.600;2022-09-17T06:13:59;8.73;;;2.80;;
40244;SDS011;25963;42.694;23.600;2022-09-17T06:16:24;5.35;;;2.55;;
40244;SDS011;25963;42.694;23.600;2022-09-17T06:18:50;8.52;;;3.13;;
40244;SDS011;25963;42.694;23.600;2022-09-17T06:21:17;6.22;;;2.47;;
40244;SDS011;25963;42.694;23.600;2022-09-17T06:23:43;8.77;;;2.72;;
40244;SDS011;25963;42.694;23.600;2022-09-17T06:26:09;7.85;;;2.88;;
40244;SDS011;25963;42.694;23.600;2022-09-17T06:28:36;10.63;;;3.53;;
40244;SDS011;25963;42.694;23.600;2022-09-17T06:31:02;10.63;;;2.63;;
40244;SDS011;25963;42.694;23.600;2022-09-17T06:33:30;7.18;;;3.20;;
40244;SDS011;25963;42.694;23.600;2022-09-17T06:35:57;7.20;;;4.03;;
40244;SDS011;25963;42.694;23.600;2022-09-17T06:38:24;7.68;;;5.00;;
40244;SDS011;25963;42.694;23.600;2022-09-17T06:40:53;13.55;;;5.88;;
40244;SDS011;25963;42.694;23.600;2022-09-17T06:43:19;13.88;;;5.82;;
40244;SDS011;25963;42.694;23.600;2022-09-17T06:45:55;10.48;;;5.47;;
40244;SDS011;25963;42.694;23.600;2022-09-17T06:48:22;12.45;;;6.20;;
40244;SDS011;25963;42.694;23.600;2022-09-17T06:50:49;11.52;;;7.57;;
40244;SDS011;25963;42.694;23.600;2022-09-17T06:53:14;17.00;;;9.93;;
40244;SDS011;25963;42.694;23.600;2022-09-17T06:55:40;20.88;;;11.60;;
40244;SDS011;25963;42.694;23.600;2022-09-17T06:58:06;18.15;;;12.35;;
40244;SDS011;25963;42.694;23.600;2022-09-17T07:00:32;17.15;;;7.78;;
40244;SDS011;25963;42.694;23.600;2022-09-17T07:02:57;10.02;;;6.07;;
40244;SDS011;25963;42.694;23.600;2022-09-17T07:05:24;8.73;;;4.60;;
40244;SDS011;25963;42.694;23.600;2022-09-17T07:07:51;11.35;;;4.80;;
40244;SDS011;25963;42.694;23.600;2022-09-17T07:10:17;11.65;;;5.22;;
40244;SDS011;25963;42.694;23.600;2022-09-17T07:12:42;12.63;;;5.13;;
40244;SDS011;25963;42.694;23.600;2022-09-17T07:15:08;11.50;;;5.10;;
40244;SDS011;25963;42.694;23.600;2022-09-17T07:17:35;12.40;;;5.68;;
40244;SDS011;25963;42.694;23.600;2022-09-17T07:20:05;10.55;;;5.53;;
40244;SDS011;25963;42.694;23.600;2022-09-17T07:22:32;10.60;;;6.40;;
40244;SDS011;25963;42.694;23.600;2022-09-17T07:24:57;14.80;;;6.97;;
40244;SDS011;25963;42.694;23.600;2022-09-17T07:27:23;12.18;;;4.85;;
40244;SDS011;25963;42.694;23.600;2022-09-17T07:29:51;12.73;;;3.72;;
40244;SDS011;25963;42.694;23.600;2022-09-17T07:32:16;7.93;;;2.00;;
40244;SDS011;25963;42.694;23.600;2022-09-17T07:34:41;7.00;;;2.97;;
40244;SDS011;25963;42.694;23.600;2022-09-17T07:37:07;6.05;;;2.90;;
40244;SDS011;25963;42.694;23.600;2022-09-17T07:39:33;6.75;;;1.95;;
40244;SDS011;25963;42.694;23.600;2022-09-17T07:41:58;3.47;;;1.42;;
40244;SDS011;25963;42.694;23.600;2022-09-17T07:44:23;3.92;;;1.10;;
40244;SDS011;25963;42.694;23.600;2022-09-17T07:46:49;3.92;;;0.80;;
40244;SDS011;25963;42.694;23.600;2022-09-17T07:49:15;2.15;;;0.90;;
40244;SDS011;25963;42.694;23.600;2022-09-17T07:51:40;3.30;;;0.60;;
40244;SDS011;25963;42.694;23.600;2022-09-17T07:54:06;2.80;;;0.70;;
40244;SDS011;25963;42.694;23.600;2022-09-17T07:56:31;5.07;;;0.70;;
40244;SDS011;25963;42.694;23.600;2022-09-17T07:58:57;3.33;;;0.70;;
40244;SDS011;25963;42.694;23.600;2022-09-17T08:01:22;2.42;;;0.82;;
40244;SDS011;25963;42.694;23.600;2022-09-17T08:03:49;3.10;;;0.82;;
40244;SDS011;25963;42.694;23.600;2022-09-17T08:06:17;1.48;;;0.50;;
40244;SDS011;25963;42.694;23.600;2022-09-17T08:08:45;2.70;;;0.47;;
40244;SDS011;25963;42.694;23.600;2022-09-17T08:11:12;0.90;;;0.60;;
40244;SDS011;25963;42.694;23.600;2022-09-17T08:13:39;3.50;;;0.85;;
40244;SDS011;25963;42.694;23.600;2022-09-17T08:16:09;1.27;;;0.70;;
40244;SDS011;25963;42.694;23.600;2022-09-17T08:18:39;2.80;;;1.10;;
40244;SDS011;25963;42.694;23.600;2022-09-17T08:21:06;3.08;;;0.80;;
40244;SDS011;25963;42.694;23.600;2022-09-17T08:23:34;2.03;;;0.65;;
40244;SDS011;25963;42.694;23.600;2022-09-17T08:26:01;1.67;;;0.40;;
40244;SDS011;25963;42.694;23.600;2022-09-17T08:28:28;2.70;;;0.82;;
40244;SDS011;25963;42.694;23.600;2022-09-17T08:30:59;1.92;;;0.70;;
40244;SDS011;25963;42.694;23.600;2022-09-17T08:33:32;3.28;;;0.85;;
40244;SDS011;25963;42.694;23.600;2022-09-17T08:36:00;2.25;;;0.82;;
40244;SDS011;25963;42.694;23.600;2022-09-17T08:38:27;2.80;;;0.90;;
40244;SDS011;25963;42.694;23.600;2022-09-17T08:43:22;16.75;;;10.77;;
40244;SDS011;25963;42.694;23.600;2022-09-17T08:45:55;22.63;;;16.58;;
40244;SDS011;25963;42.694;23.600;2022-09-17T08:48:24;13.23;;;9.13;;
40244;SDS011;25963;42.694;23.600;2022-09-17T08:50:57;2.20;;;1.17;;
40244;SDS011;25963;42.694;23.600;2022-09-17T08:56:00;1.48;;;1.13;;
40244;SDS011;25963;42.694;23.600;2022-09-17T09:01:33;3.42;;;1.10;;
40244;SDS011;25963;42.694;23.600;2022-09-17T09:06:58;3.63;;;1.42;;
40244;SDS011;25963;42.694;23.600;2022-09-17T09:09:40;2.45;;;1.10;;
40244;SDS011;25963;42.694;23.600;2022-09-17T09:12:17;2.88;;;1.05;;
40244;SDS011;25963;42.694;23.600;2022-09-17T09:17:34;3.42;;;1.00;;
40244;SDS011;25963;42.694;23.600;2022-09-17T09:20:11;3.13;;;1.13;;
40244;SDS011;25963;42.694;23.600;2022-09-17T09:22:54;2.33;;;1.20;;
40244;SDS011;25963;42.694;23.600;2022-09-17T09:25:21;2.70;;;1.02;;
40244;SDS011;25963;42.694;23.600;2022-09-17T09:30:51;2.20;;;1.17;;
40244;SDS011;25963;42.694;23.600;2022-09-17T09:33:22;3.30;;;1.60;;
40244;SDS011;25963;42.694;23.600;2022-09-17T09:35:54;5.93;;;1.52;;
40244;SDS011;25963;42.694;23.600;2022-09-17T09:43:45;3.10;;;1.13;;
40244;SDS011;25963;42.694;23.600;2022-09-17T09:59:13;4.07;;;1.50;;
40244;SDS011;25963;42.694;23.600;2022-09-17T10:01:40;4.78;;;1.67;;
40244;SDS011;25963;42.694;23.600;2022-09-17T10:04:14;2.88;;;1.48;;
40244;SDS011;25963;42.694;23.600;2022-09-17T10:06:47;4.68;;;1.77;;
40244;SDS011;25963;42.694;23.600;2022-09-17T10:09:14;4.65;;;1.88;;
40244;SDS011;25963;42.694;23.600;2022-09-17T10:11:57;5.00;;;2.08;;
40244;SDS011;25963;42.694;23.600;2022-09-17T10:14:25;9.13;;;1.60;;
40244;SDS011;25963;42.694;23.600;2022-09-17T10:19:39;4.32;;;1.52;;
40244;SDS011;25963;42.694;23.600;2022-09-17T10:24:46;5.17;;;2.20;;
40244;SDS011;25963;42.694;23.600;2022-09-17T10:27:16;5.32;;;1.63;;
40244;SDS011;25963;42.694;23.600;2022-09-17T10:29:43;5.22;;;2.28;;
40244;SDS011;25963;42.694;23.600;2022-09-17T10:32:15;7.13;;;1.98;;
40244;SDS011;25963;42.694;23.600;2022-09-17T10:35:23;18.10;;;8.80;;
40244;SDS011;25963;42.694;23.600;2022-09-17T10:37:47;6.57;;;2.65;;
40244;SDS011;25963;42.694;23.600;2022-09-17T10:42:45;6.65;;;2.60;;
40244;SDS011;25963;42.694;23.600;2022-09-17T10:45:25;7.60;;;4.10;;
40244;SDS011;25963;42.694;23.600;2022-09-17T10:47:51;8.05;;;2.53;;
40244;SDS011;25963;42.694;23.600;2022-09-17T10:50:23;6.82;;;2.30;;
40244;SDS011;25963;42.694;23.600;2022-09-17T10:52:53;8.65;;;2.72;;
40244;SDS011;25963;42.694;23.600;2022-09-17T10:58:02;6.45;;;2.78;;
40244;SDS011;25963;42.694;23.600;2022-09-17T11:05:45;5.90;;;2.55;;
40244;SDS011;25963;42.694;23.600;2022-09-17T11:11:03;3.92;;;2.40;;
40244;SDS011;25963;42.694;23.600;2022-09-17T11:16:34;11.45;;;2.78;;
40244;SDS011;25963;42.694;23.600;2022-09-17T11:24:50;3.75;;;1.77;;
40244;SDS011;25963;42.694;23.600;2022-09-17T11:35:32;7.93;;;2.13;;
40244;SDS011;25963;42.694;23.600;2022-09-17T11:38:22;5.90;;;2.58;;
40244;SDS011;25963;42.694;23.600;2022-09-17T11:41:19;4.07;;;1.55;;
40244;SDS011;25963;42.694;23.600;2022-09-17T11:43:49;4.50;;;1.38;;
40244;SDS011;25963;42.694;23.600;2022-09-17T11:46:26;5.68;;;1.00;;
40244;SDS011;25963;42.694;23.600;2022-09-17T11:48:58;2.72;;;1.02;;
40244;SDS011;25963;42.694;23.600;2022-09-17T11:59:26;4.85;;;2.40;;
40244;SDS011;25963;42.694;23.600;2022-09-17T12:02:03;4.97;;;2.72;;
40244;SDS011;25963;42.694;23.600;2022-09-17T12:10:19;4.20;;;1.33;;
40244;SDS011;25963;42.694;23.600;2022-09-17T12:13:18;4.97;;;2.15;;
40244;SDS011;25963;42.694;23.600;2022-09-17T12:22:07;2.83;;;1.50;;
40244;SDS011;25963;42.694;23.600;2022-09-17T12:24:36;4.30;;;2.00;;
40244;SDS011;25963;42.694;23.600;2022-09-17T12:43:39;7.03;;;2.63;;
40244;SDS011;25963;42.694;23.600;2022-09-17T12:57:05;6.32;;;2.60;;
40244;SDS011;25963;42.694;23.600;2022-09-17T13:00:05;5.05;;;2.08;;
40244;SDS011;25963;42.694;23.600;2022-09-17T13:05:26;6.70;;;2.35;;
40244;SDS011;25963;42.694;23.600;2022-09-17T13:19:55;6.45;;;2.65;;
40244;SDS011;25963;42.694;23.600;2022-09-17T13:22:15;8.50;;;3.78;;
40244;SDS011;25963;42.694;23.600;2022-09-17T13:24:42;6.22;;;2.90;;
40244;SDS011;25963;42.694;23.600;2022-09-17T13:27:21;4.53;;;2.35;;
40244;SDS011;25963;42.694;23.600;2022-09-17T13:40:04;4.65;;;2.78;;
40244;SDS011;25963;42.694;23.600;2022-09-17T13:42:46;6.25;;;2.60;;
40244;SDS011;25963;42.694;23.600;2022-09-17T13:45:15;4.50;;;1.92;;
40244;SDS011;25963;42.694;23.600;2022-09-17T13:57:59;2.38;;;0.70;;
40244;SDS011;25963;42.694;23.600;2022-09-17T14:05:54;3.75;;;1.65;;
40244;SDS011;25963;42.694;23.600;2022-09-17T14:08:30;4.50;;;1.80;;
40244;SDS011;25963;42.694;23.600;2022-09-17T14:21:41;4.13;;;1.33;;
40244;SDS011;25963;42.694;23.600;2022-09-17T14:24:31;7.05;;;1.98;;
40244;SDS011;25963;42.694;23.600;2022-09-17T14:27:16;4.38;;;3.33;;
40244;SDS011;25963;42.694;23.600;2022-09-17T14:35:49;3.00;;;2.67;;
40244;SDS011;25963;42.694;23.600;2022-09-17T14:38:26;4.15;;;2.58;;
40244;SDS011;25963;42.694;23.600;2022-09-17T14:43:32;5.38;;;2.63;;
40244;SDS011;25963;42.694;23.600;2022-09-17T14:46:17;3.70;;;2.10;;
40244;SDS011;25963;42.694;23.600;2022-09-17T14:48:46;3.85;;;1.95;;
40244;SDS011;25963;42.694;23.600;2022-09-17T14:56:10;5.82;;;2.38;;
40244;SDS011;25963;42.694;23.600;2022-09-17T14:58:45;4.28;;;1.48;;
40244;SDS011;25963;42.694;23.600;2022-09-17T15:01:25;2.65;;;1.30;;
40244;SDS011;25963;42.694;23.600;2022-09-17T15:06:39;4.65;;;1.80;;
40244;SDS011;25963;42.694;23.600;2022-09-17T15:09:12;2.00;;;1.50;;
40244;SDS011;25963;42.694;23.600;2022-09-17T15:11:39;3.85;;;1.42;;
40244;SDS011;25963;42.694;23.600;2022-09-17T15:14:09;3.10;;;1.55;;
40244;SDS011;25963;42.694;23.600;2022-09-17T15:16:45;6.78;;;1.98;;
40244;SDS011;25963;42.694;23.600;2022-09-17T15:19:13;6.85;;;4.68;;
40244;SDS011;25963;42.694;23.600;2022-09-17T15:21:57;12.27;;;7.97;;
40244;SDS011;25963;42.694;23.600;2022-09-17T15:29:56;11.10;;;7.03;;
40244;SDS011;25963;42.694;23.600;2022-09-17T15:32:23;10.38;;;3.63;;
40244;SDS011;25963;42.694;23.600;2022-09-17T15:37:43;3.13;;;1.10;;
40244;SDS011;25963;42.694;23.600;2022-09-17T15:43:00;2.88;;;2.63;;
40244;SDS011;25963;42.694;23.600;2022-09-17T15:45:29;4.65;;;1.88;;
40244;SDS011;25963;42.694;23.600;2022-09-17T15:47:59;3.42;;;2.50;;
40244;SDS011;25963;42.694;23.600;2022-09-17T15:50:38;5.18;;;3.33;;
40244;SDS011;25963;42.694;23.600;2022-09-17T15:53:26;3.95;;;1.92;;
40244;SDS011;25963;42.694;23.600;2022-09-17T15:58:26;3.33;;;1.80;;
40244;SDS011;25963;42.694;23.600;2022-09-17T16:03:59;7.22;;;4.00;;
40244;SDS011;25963;42.694;23.600;2022-09-17T16:08:58;5.20;;;3.60;;
40244;SDS011;25963;42.694;23.600;2022-09-17T16:11:26;4.65;;;2.40;;
40244;SDS011;25963;42.694;23.600;2022-09-17T16:13:54;4.35;;;2.92;;
40244;SDS011;25963;42.694;23.600;2022-09-17T16:16:21;8.13;;;4.57;;
40244;SDS011;25963;42.694;23.600;2022-09-17T16:18:49;3.58;;;2.38;;
40244;SDS011;25963;42.694;23.600;2022-09-17T16:21:16;3.70;;;2.33;;
40244;SDS011;25963;42.694;23.600;2022-09-17T16:23:42;5.10;;;3.28;;
40244;SDS011;25963;42.694;23.600;2022-09-17T16:26:09;7.75;;;2.22;;
40244;SDS011;25963;42.694;23.600;2022-09-17T16:28:47;3.03;;;2.03;;
40244;SDS011;25963;42.694;23.600;2022-09-17T16:31:17;1.70;;;1.48;;
40244;SDS011;25963;42.694;23.600;2022-09-17T16:33:42;4.82;;;1.20;;
40244;SDS011;25963;42.694;23.600;2022-09-17T16:36:08;2.83;;;1.90;;
40244;SDS011;25963;42.694;23.600;2022-09-17T16:38:33;3.13;;;1.38;;
40244;SDS011;25963;42.694;23.600;2022-09-17T16:41:03;2.42;;;1.50;;
40244;SDS011;25963;42.694;23.600;2022-09-17T16:43:29;6.72;;;1.40;;
40244;SDS011;25963;42.694;23.600;2022-09-17T16:46:01;3.33;;;1.30;;
40244;SDS011;25963;42.694;23.600;2022-09-17T16:48:28;2.88;;;0.85;;
40244;SDS011;25963;42.694;23.600;2022-09-17T16:50:53;3.70;;;1.48;;
40244;SDS011;25963;42.694;23.600;2022-09-17T16:53:19;2.00;;;1.13;;
40244;SDS011;25963;42.694;23.600;2022-09-17T16:55:44;3.75;;;1.58;;
40244;SDS011;25963;42.694;23.600;2022-09-17T16:58:10;3.65;;;1.23;;
40244;SDS011;25963;42.694;23.600;2022-09-17T17:00:35;3.90;;;1.65;;
40244;SDS011;25963;42.694;23.600;2022-09-17T17:03:02;3.30;;;1.42;;
40244;SDS011;25963;42.694;23.600;2022-09-17T17:05:28;3.78;;;1.60;;
40244;SDS011;25963;42.694;23.600;2022-09-17T17:07:54;3.80;;;1.70;;
40244;SDS011;25963;42.694;23.600;2022-09-17T17:10:20;1.75;;;1.52;;
40244;SDS011;25963;42.694;23.600;2022-09-17T17:12:47;3.60;;;1.70;;
40244;SDS011;25963;42.694;23.600;2022-09-17T17:15:12;5.07;;;1.77;;
40244;SDS011;25963;42.694;23.600;2022-09-17T17:17:37;5.65;;;1.67;;
40244;SDS011;25963;42.694;23.600;2022-09-17T17:20:04;3.53;;;1.27;;
40244;SDS011;25963;42.694;23.600;2022-09-17T17:22:34;1.60;;;1.20;;
40244;SDS011;25963;42.694;23.600;2022-09-17T17:25:01;2.92;;;1.35;;
40244;SDS011;25963;42.694;23.600;2022-09-17T17:27:27;3.30;;;1.55;;
40244;SDS011;25963;42.694;23.600;2022-09-17T17:29:53;3.42;;;1.38;;
40244;SDS011;25963;42.694;23.600;2022-09-17T17:32:18;5.38;;;1.65;;
40244;SDS011;25963;42.694;23.600;2022-09-17T17:34:44;2.70;;;1.33;;
40244;SDS011;25963;42.694;23.600;2022-09-17T17:37:09;4.80;;;1.63;;
40244;SDS011;25963;42.694;23.600;2022-09-17T17:39:35;3.35;;;1.23;;
40244;SDS011;25963;42.694;23.600;2022-09-17T17:42:01;4.80;;;1.85;;
40244;SDS011;25963;42.694;23.600;2022-09-17T17:44:26;7.32;;;1.90;;
40244;SDS011;25963;42.694;23.600;2022-09-17T17:46:52;4.07;;;1.83;;
40244;SDS011;25963;42.694;23.600;2022-09-17T17:49:17;5.10;;;1.55;;
40244;SDS011;25963;42.694;23.600;2022-09-17T17:51:43;4.32;;;1.50;;
40244;SDS011;25963;42.694;23.600;2022-09-17T17:54:09;4.15;;;1.42;;
40244;SDS011;25963;42.694;23.600;2022-09-17T17:56:34;7.90;;;1.73;;
40244;SDS011;25963;42.694;23.600;2022-09-17T17:59:00;3.88;;;1.50;;
40244;SDS011;25963;42.694;23.600;2022-09-17T18:01:28;4.80;;;1.70;;
40244;SDS011;25963;42.694;23.600;2022-09-17T18:03:58;4.50;;;1.75;;
40244;SDS011;25963;42.694;23.600;2022-09-17T18:06:25;3.45;;;1.80;;
40244;SDS011;25963;42.694;23.600;2022-09-17T18:08:52;8.65;;;2.22;;
40244;SDS011;25963;42.694;23.600;2022-09-17T18:11:18;3.92;;;1.58;;
40244;SDS011;25963;42.694;23.600;2022-09-17T18:13:44;3.58;;;1.65;;
40244;SDS011;25963;42.694;23.600;2022-09-17T18:16:10;2.67;;;1.20;;
40244;SDS011;25963;42.694;23.600;2022-09-17T18:18:38;3.88;;;2.00;;
40244;SDS011;25963;42.694;23.600;2022-09-17T18:21:05;4.50;;;1.85;;
40244;SDS011;25963;42.694;23.600;2022-09-17T18:23:33;5.15;;;1.58;;
40244;SDS011;25963;42.694;23.600;2022-09-17T18:26:00;5.28;;;1.88;;
40244;SDS011;25963;42.694;23.600;2022-09-17T18:28:26;4.97;;;1.58;;
40244;SDS011;25963;42.694;23.600;2022-09-17T18:30:54;2.92;;;1.70;;
40244;SDS011;25963;42.694;23.600;2022-09-17T18:33:21;8.93;;;1.70;;
40244;SDS011;25963;42.694;23.600;2022-09-17T18:35:49;4.57;;;1.95;;
40244;SDS011;25963;42.694;23.600;2022-09-17T18:38:15;2.25;;;1.60;;
40244;SDS011;25963;42.694;23.600;2022-09-17T18:40:41;2.60;;;1.25;;